Scroll down
FLIGHT INFORMATION
Singapore Airlines Cargo

SQC194

At Arrival Gate

YMML
 YBBN
DATE: 2021-04-01
GATE:  -
GATE DEPARTURE: 23:29
TAKEOFF: 23:42
DATE: 2021-04-02
GATE:  -
LANDING: 01:33
GATE ARRIVAL: 01:48
FLIGHT DATA
Crew: 
Speed: 
919 kph
Altitude: 
35,009 ft
Stage Length: 
1,380.9 km
Block Time: 
2.4 hrs
Flight Time: 
1.9 hrs
Fuel Used: 
21,650 kg
Cleared Route: YMML NONIX KACEY MUDGI TW PEBDO WHITI GAMBL BLAKA YBBN
TRACK DATA
50,000 ft 1,000 kts
AIRCRAFT INFO AND CUMULATIVE STATS
Aircraft Type: 
B744F
Registration: 
SELCAL: 
AQFP
MSN/LN: 
32901 / 1369
Total Flights: 
1
Total Block Time: 
2.4 hrs
Total Flight Time: 
1.9 hrs
Total Fuel Time: 
21,650 kg
DATALINK LOG | Newest first | Current as of: 2021-05-07 12:18:02
LABEL SEQUENCE CONTENT Dn/Up
QD304001:48 20.5▼ Dn
QC151501:33▼ Dn
2U0914YBBN 310130Z 14010KT 9999 SCT045 25/14 Q1019▲ Up
2S4828YBBN▼ Dn
UM205555CLEARED TO FL 350▲ Up
DM65544REQUEST FL 350 DUE TO A/C PERF▼ Dn
QB473723:42▼ Dn
QA342423:29 67.9▼ Dn
A31722CLEARED TO YBBN VIA NONIX3 NONIX H66 PEBDO H66 BLAKA BLAK4A. SQUAWK 4117.▲ Up
B31712YMML YBBN G ▼ Dn
A71106CLEARANCE AVAIL WITHIN 0:25 OF EDT▲ Up
B31106YMML YBBN G ▼ Dn
Q00803[LINK ACK]▲ Up
Q00803[LINK TEST]▼ Dn


AIRCRAFT HISTORY
FLIGHT DATE FLIGHT NO. ORIGIN DESTINATION CLEARED ROUTE BLOCK TIME FLIGHT TIME FUEL USED PILOT
2021-04-01SQC194YMML YBBN YMML NONIX KACEY MUDGI TW PEBDO WHITI GAMBL BLAKA YBBN2.4 hrs1.9 hrs47,731 lbZsolt Szivak